sensor_id;sensor_type;location;lat;lon;timestamp;P1;durP1;ratioP1;P2;durP2;ratioP2
2187;SDS011;1100;52.014;8.540;2023-03-01T00:01:04;10.93;;;3.65;;
2187;SDS011;1100;52.014;8.540;2023-03-01T00:03:31;10.13;;;3.08;;
2187;SDS011;1100;52.014;8.540;2023-03-01T00:05:57;8.85;;;3.30;;
2187;SDS011;1100;52.014;8.540;2023-03-01T00:08:23;9.67;;;3.80;;
2187;SDS011;1100;52.014;8.540;2023-03-01T00:10:49;11.07;;;3.90;;
2187;SDS011;1100;52.014;8.540;2023-03-01T00:13:14;10.87;;;3.60;;
2187;SDS011;1100;52.014;8.540;2023-03-01T00:15:40;11.53;;;3.50;;
2187;SDS011;1100;52.014;8.540;2023-03-01T00:18:09;9.35;;;3.72;;
2187;SDS011;1100;52.014;8.540;2023-03-01T00:20:34;8.80;;;3.23;;
2187;SDS011;1100;52.014;8.540;2023-03-01T00:23:00;10.45;;;3.80;;
2187;SDS011;1100;52.014;8.540;2023-03-01T00:25:25;10.03;;;3.63;;
2187;SDS011;1100;52.014;8.540;2023-03-01T00:27:51;8.73;;;3.37;;
2187;SDS011;1100;52.014;8.540;2023-03-01T00:30:16;8.83;;;3.37;;
2187;SDS011;1100;52.014;8.540;2023-03-01T00:32:41;9.70;;;3.30;;
2187;SDS011;1100;52.014;8.540;2023-03-01T00:35:07;8.57;;;3.30;;
2187;SDS011;1100;52.014;8.540;2023-03-01T00:37:32;8.57;;;3.35;;
2187;SDS011;1100;52.014;8.540;2023-03-01T00:39:58;8.33;;;3.10;;
2187;SDS011;1100;52.014;8.540;2023-03-01T00:42:23;8.73;;;3.57;;
2187;SDS011;1100;52.014;8.540;2023-03-01T00:44:48;10.90;;;3.70;;
2187;SDS011;1100;52.014;8.540;2023-03-01T00:47:14;11.83;;;3.70;;
2187;SDS011;1100;52.014;8.540;2023-03-01T00:49:39;9.50;;;3.63;;
2187;SDS011;1100;52.014;8.540;2023-03-01T00:52:05;8.85;;;3.25;;
2187;SDS011;1100;52.014;8.540;2023-03-01T00:54:30;9.60;;;3.77;;
2187;SDS011;1100;52.014;8.540;2023-03-01T00:56:56;9.63;;;3.20;;
2187;SDS011;1100;52.014;8.540;2023-03-01T00:59:21;9.70;;;3.50;;
2187;SDS011;1100;52.014;8.540;2023-03-01T01:01:47;11.20;;;3.80;;
2187;SDS011;1100;52.014;8.540;2023-03-01T01:04:12;8.47;;;3.13;;
2187;SDS011;1100;52.014;8.540;2023-03-01T01:06:39;9.55;;;3.58;;
2187;SDS011;1100;52.014;8.540;2023-03-01T01:09:09;9.55;;;3.80;;
2187;SDS011;1100;52.014;8.540;2023-03-01T01:11:42;10.07;;;4.25;;
2187;SDS011;1100;52.014;8.540;2023-03-01T01:14:08;10.10;;;3.93;;
2187;SDS011;1100;52.014;8.540;2023-03-01T01:16:34;10.53;;;3.83;;
2187;SDS011;1100;52.014;8.540;2023-03-01T01:18:59;12.45;;;3.53;;
2187;SDS011;1100;52.014;8.540;2023-03-01T01:21:24;11.17;;;3.73;;
2187;SDS011;1100;52.014;8.540;2023-03-01T01:23:50;9.20;;;3.33;;
2187;SDS011;1100;52.014;8.540;2023-03-01T01:26:18;11.02;;;3.72;;
2187;SDS011;1100;52.014;8.540;2023-03-01T01:28:48;11.07;;;3.53;;
2187;SDS011;1100;52.014;8.540;2023-03-01T01:31:13;8.90;;;3.40;;
2187;SDS011;1100;52.014;8.540;2023-03-01T01:33:39;9.77;;;3.80;;
2187;SDS011;1100;52.014;8.540;2023-03-01T01:36:05;9.87;;;3.57;;
2187;SDS011;1100;52.014;8.540;2023-03-01T01:38:31;9.97;;;3.50;;
2187;SDS011;1100;52.014;8.540;2023-03-01T01:40:57;10.10;;;3.85;;
2187;SDS011;1100;52.014;8.540;2023-03-01T01:43:27;9.47;;;3.83;;
2187;SDS011;1100;52.014;8.540;2023-03-01T01:45:57;12.05;;;3.88;;
2187;SDS011;1100;52.014;8.540;2023-03-01T01:48:54;9.70;;;3.47;;
2187;SDS011;1100;52.014;8.540;2023-03-01T01:51:25;12.90;;;3.55;;
2187;SDS011;1100;52.014;8.540;2023-03-01T01:54:03;10.80;;;3.80;;
2187;SDS011;1100;52.014;8.540;2023-03-01T01:56:33;8.75;;;3.47;;
2187;SDS011;1100;52.014;8.540;2023-03-01T01:58:59;11.40;;;4.50;;
2187;SDS011;1100;52.014;8.540;2023-03-01T02:01:26;8.93;;;3.60;;
2187;SDS011;1100;52.014;8.540;2023-03-01T02:03:52;9.17;;;3.90;;
2187;SDS011;1100;52.014;8.540;2023-03-01T02:06:21;9.23;;;3.70;;
2187;SDS011;1100;52.014;8.540;2023-03-01T02:08:53;11.48;;;4.18;;
2187;SDS011;1100;52.014;8.540;2023-03-01T02:11:22;13.27;;;4.40;;
2187;SDS011;1100;52.014;8.540;2023-03-01T02:13:48;10.00;;;4.03;;
2187;SDS011;1100;52.014;8.540;2023-03-01T02:16:14;11.45;;;4.63;;
2187;SDS011;1100;52.014;8.540;2023-03-01T02:18:41;11.35;;;4.25;;
2187;SDS011;1100;52.014;8.540;2023-03-01T02:23:54;10.65;;;4.10;;
2187;SDS011;1100;52.014;8.540;2023-03-01T02:26:29;10.90;;;3.83;;
2187;SDS011;1100;52.014;8.540;2023-03-01T02:29:05;11.85;;;4.43;;
2187;SDS011;1100;52.014;8.540;2023-03-01T02:31:31;10.88;;;4.40;;
2187;SDS011;1100;52.014;8.540;2023-03-01T02:34:06;10.70;;;4.10;;
2187;SDS011;1100;52.014;8.540;2023-03-01T02:36:34;12.63;;;4.50;;
2187;SDS011;1100;52.014;8.540;2023-03-01T02:39:03;12.73;;;4.40;;
2187;SDS011;1100;52.014;8.540;2023-03-01T02:41:32;11.68;;;4.38;;
2187;SDS011;1100;52.014;8.540;2023-03-01T02:44:01;10.68;;;4.32;;
2187;SDS011;1100;52.014;8.540;2023-03-01T02:46:27;11.07;;;4.10;;
2187;SDS011;1100;52.014;8.540;2023-03-01T02:48:53;12.93;;;5.05;;
2187;SDS011;1100;52.014;8.540;2023-03-01T02:56:53;14.05;;;4.50;;
2187;SDS011;1100;52.014;8.540;2023-03-01T02:59:19;11.80;;;4.80;;
2187;SDS011;1100;52.014;8.540;2023-03-01T03:01:47;11.02;;;3.90;;
2187;SDS011;1100;52.014;8.540;2023-03-01T03:04:15;11.90;;;4.00;;
2187;SDS011;1100;52.014;8.540;2023-03-01T03:06:46;11.40;;;4.60;;
2187;SDS011;1100;52.014;8.540;2023-03-01T03:09:12;13.43;;;4.40;;
2187;SDS011;1100;52.014;8.540;2023-03-01T03:11:39;12.05;;;4.55;;
2187;SDS011;1100;52.014;8.540;2023-03-01T03:14:05;9.75;;;4.32;;
2187;SDS011;1100;52.014;8.540;2023-03-01T03:16:37;10.53;;;4.43;;
2187;SDS011;1100;52.014;8.540;2023-03-01T03:19:05;11.65;;;4.38;;
2187;SDS011;1100;52.014;8.540;2023-03-01T03:21:33;11.63;;;4.60;;
2187;SDS011;1100;52.014;8.540;2023-03-01T03:23:59;12.43;;;4.65;;
2187;SDS011;1100;52.014;8.540;2023-03-01T03:26:24;11.47;;;4.83;;
2187;SDS011;1100;52.014;8.540;2023-03-01T03:28:50;12.68;;;4.35;;
2187;SDS011;1100;52.014;8.540;2023-03-01T03:31:15;10.47;;;4.47;;
2187;SDS011;1100;52.014;8.540;2023-03-01T03:33:41;13.13;;;4.50;;
2187;SDS011;1100;52.014;8.540;2023-03-01T03:36:06;9.03;;;4.10;;
2187;SDS011;1100;52.014;8.540;2023-03-01T03:38:38;11.23;;;4.75;;
2187;SDS011;1100;52.014;8.540;2023-03-01T03:41:07;13.93;;;4.38;;
2187;SDS011;1100;52.014;8.540;2023-03-01T03:43:34;12.48;;;4.70;;
2187;SDS011;1100;52.014;8.540;2023-03-01T03:46:01;12.45;;;4.45;;
2187;SDS011;1100;52.014;8.540;2023-03-01T03:48:31;11.50;;;4.73;;
2187;SDS011;1100;52.014;8.540;2023-03-01T03:50:58;13.10;;;4.85;;
2187;SDS011;1100;52.014;8.540;2023-03-01T03:53:25;13.13;;;5.03;;
2187;SDS011;1100;52.014;8.540;2023-03-01T03:55:51;11.85;;;4.95;;
2187;SDS011;1100;52.014;8.540;2023-03-01T03:58:17;13.33;;;5.13;;
2187;SDS011;1100;52.014;8.540;2023-03-01T04:00:44;13.70;;;4.32;;
2187;SDS011;1100;52.014;8.540;2023-03-01T04:03:12;10.75;;;4.60;;
2187;SDS011;1100;52.014;8.540;2023-03-01T04:05:40;11.05;;;4.22;;
2187;SDS011;1100;52.014;8.540;2023-03-01T04:08:06;11.43;;;4.70;;
2187;SDS011;1100;52.014;8.540;2023-03-01T04:10:33;12.23;;;4.37;;
2187;SDS011;1100;52.014;8.540;2023-03-01T04:13:10;12.77;;;4.90;;
2187;SDS011;1100;52.014;8.540;2023-03-01T04:15:37;12.23;;;5.18;;
2187;SDS011;1100;52.014;8.540;2023-03-01T04:18:03;11.88;;;5.35;;
2187;SDS011;1100;52.014;8.540;2023-03-01T04:20:31;13.38;;;5.30;;
2187;SDS011;1100;52.014;8.540;2023-03-01T04:23:00;14.17;;;5.50;;
2187;SDS011;1100;52.014;8.540;2023-03-01T04:25:36;10.82;;;4.43;;
2187;SDS011;1100;52.014;8.540;2023-03-01T04:28:03;12.20;;;4.97;;
2187;SDS011;1100;52.014;8.540;2023-03-01T04:30:28;14.80;;;6.33;;
2187;SDS011;1100;52.014;8.540;2023-03-01T04:32:53;14.47;;;6.13;;
2187;SDS011;1100;52.014;8.540;2023-03-01T04:35:19;13.35;;;5.68;;
2187;SDS011;1100;52.014;8.540;2023-03-01T04:37:44;14.37;;;5.90;;
2187;SDS011;1100;52.014;8.540;2023-03-01T04:40:10;16.97;;;6.67;;
2187;SDS011;1100;52.014;8.540;2023-03-01T04:42:41;15.73;;;6.22;;
2187;SDS011;1100;52.014;8.540;2023-03-01T04:45:07;13.35;;;5.85;;
2187;SDS011;1100;52.014;8.540;2023-03-01T04:47:38;14.90;;;5.77;;
2187;SDS011;1100;52.014;8.540;2023-03-01T04:50:04;15.20;;;6.10;;
2187;SDS011;1100;52.014;8.540;2023-03-01T04:52:30;14.73;;;6.53;;
2187;SDS011;1100;52.014;8.540;2023-03-01T04:54:56;17.95;;;6.47;;
2187;SDS011;1100;52.014;8.540;2023-03-01T04:57:22;15.27;;;6.87;;
2187;SDS011;1100;52.014;8.540;2023-03-01T04:59:47;13.63;;;6.63;;
2187;SDS011;1100;52.014;8.540;2023-03-01T05:02:12;14.03;;;6.20;;
2187;SDS011;1100;52.014;8.540;2023-03-01T05:04:37;13.13;;;6.27;;
2187;SDS011;1100;52.014;8.540;2023-03-01T05:07:03;17.37;;;6.97;;
2187;SDS011;1100;52.014;8.540;2023-03-01T05:09:28;13.83;;;6.80;;
2187;SDS011;1100;52.014;8.540;2023-03-01T05:11:53;15.33;;;7.33;;
2187;SDS011;1100;52.014;8.540;2023-03-01T05:14:18;13.80;;;6.83;;
2187;SDS011;1100;52.014;8.540;2023-03-01T05:16:44;16.90;;;6.82;;
2187;SDS011;1100;52.014;8.540;2023-03-01T05:19:09;15.23;;;6.80;;
2187;SDS011;1100;52.014;8.540;2023-03-01T05:21:40;17.90;;;7.03;;
2187;SDS011;1100;52.014;8.540;2023-03-01T05:24:25;14.77;;;6.75;;
2187;SDS011;1100;52.014;8.540;2023-03-01T05:26:51;14.38;;;6.93;;
2187;SDS011;1100;52.014;8.540;2023-03-01T05:29:17;14.33;;;6.57;;
2187;SDS011;1100;52.014;8.540;2023-03-01T05:31:49;15.00;;;6.63;;
2187;SDS011;1100;52.014;8.540;2023-03-01T05:34:18;15.00;;;7.20;;
2187;SDS011;1100;52.014;8.540;2023-03-01T05:36:50;15.57;;;6.65;;
2187;SDS011;1100;52.014;8.540;2023-03-01T05:39:18;17.92;;;7.05;;
2187;SDS011;1100;52.014;8.540;2023-03-01T05:41:44;14.70;;;6.70;;
2187;SDS011;1100;52.014;8.540;2023-03-01T05:44:09;13.60;;;6.57;;
2187;SDS011;1100;52.014;8.540;2023-03-01T05:46:37;13.63;;;6.07;;
2187;SDS011;1100;52.014;8.540;2023-03-01T05:49:02;14.90;;;6.15;;
2187;SDS011;1100;52.014;8.540;2023-03-01T05:51:29;17.17;;;6.53;;
2187;SDS011;1100;52.014;8.540;2023-03-01T05:53:54;14.93;;;6.72;;
2187;SDS011;1100;52.014;8.540;2023-03-01T05:56:20;13.43;;;6.57;;
2187;SDS011;1100;52.014;8.540;2023-03-01T05:58:47;13.32;;;6.85;;
2187;SDS011;1100;52.014;8.540;2023-03-01T06:01:14;15.45;;;6.53;;
2187;SDS011;1100;52.014;8.540;2023-03-01T06:03:39;15.53;;;7.20;;
2187;SDS011;1100;52.014;8.540;2023-03-01T06:06:05;14.97;;;6.63;;
2187;SDS011;1100;52.014;8.540;2023-03-01T06:08:30;17.10;;;6.90;;
2187;SDS011;1100;52.014;8.540;2023-03-01T06:10:55;17.10;;;6.50;;
2187;SDS011;1100;52.014;8.540;2023-03-01T06:13:21;19.47;;;7.20;;
2187;SDS011;1100;52.014;8.540;2023-03-01T06:15:48;15.57;;;7.00;;
2187;SDS011;1100;52.014;8.540;2023-03-01T06:18:14;14.95;;;6.90;;
2187;SDS011;1100;52.014;8.540;2023-03-01T06:20:39;15.33;;;6.53;;
2187;SDS011;1100;52.014;8.540;2023-03-01T06:23:05;16.20;;;6.73;;
2187;SDS011;1100;52.014;8.540;2023-03-01T06:25:30;17.23;;;7.00;;
2187;SDS011;1100;52.014;8.540;2023-03-01T06:27:55;15.35;;;7.25;;
2187;SDS011;1100;52.014;8.540;2023-03-01T06:30:22;14.50;;;6.53;;
2187;SDS011;1100;52.014;8.540;2023-03-01T06:32:48;14.73;;;7.53;;
2187;SDS011;1100;52.014;8.540;2023-03-01T06:35:14;16.83;;;7.63;;
2187;SDS011;1100;52.014;8.540;2023-03-01T06:37:45;15.60;;;7.18;;
2187;SDS011;1100;52.014;8.540;2023-03-01T06:40:11;16.05;;;7.55;;
2187;SDS011;1100;52.014;8.540;2023-03-01T06:42:39;16.80;;;7.38;;
2187;SDS011;1100;52.014;8.540;2023-03-01T06:45:06;16.93;;;7.57;;
2187;SDS011;1100;52.014;8.540;2023-03-01T06:47:33;17.30;;;7.38;;
2187;SDS011;1100;52.014;8.540;2023-03-01T06:49:59;17.65;;;7.45;;
2187;SDS011;1100;52.014;8.540;2023-03-01T06:52:25;16.80;;;7.40;;
2187;SDS011;1100;52.014;8.540;2023-03-01T06:54:51;16.13;;;7.23;;
2187;SDS011;1100;52.014;8.540;2023-03-01T06:57:17;18.52;;;7.70;;
2187;SDS011;1100;52.014;8.540;2023-03-01T06:59:42;19.63;;;8.23;;
2187;SDS011;1100;52.014;8.540;2023-03-01T07:02:11;15.10;;;8.03;;
2187;SDS011;1100;52.014;8.540;2023-03-01T07:04:36;16.90;;;7.95;;
2187;SDS011;1100;52.014;8.540;2023-03-01T07:07:02;16.87;;;7.63;;
2187;SDS011;1100;52.014;8.540;2023-03-01T07:09:27;18.13;;;8.43;;
2187;SDS011;1100;52.014;8.540;2023-03-01T07:11:53;15.90;;;7.65;;
2187;SDS011;1100;52.014;8.540;2023-03-01T07:14:18;19.03;;;8.30;;
2187;SDS011;1100;52.014;8.540;2023-03-01T07:16:45;16.27;;;7.63;;
2187;SDS011;1100;52.014;8.540;2023-03-01T07:19:10;17.20;;;7.70;;
2187;SDS011;1100;52.014;8.540;2023-03-01T07:21:36;14.80;;;7.40;;
2187;SDS011;1100;52.014;8.540;2023-03-01T07:24:03;13.93;;;6.90;;
2187;SDS011;1100;52.014;8.540;2023-03-01T07:26:30;14.00;;;7.00;;
2187;SDS011;1100;52.014;8.540;2023-03-01T07:28:58;16.40;;;6.93;;
2187;SDS011;1100;52.014;8.540;2023-03-01T07:31:24;14.05;;;6.65;;
2187;SDS011;1100;52.014;8.540;2023-03-01T07:33:50;14.63;;;6.13;;
2187;SDS011;1100;52.014;8.540;2023-03-01T07:36:15;13.57;;;6.43;;
2187;SDS011;1100;52.014;8.540;2023-03-01T07:38:40;14.83;;;6.30;;
2187;SDS011;1100;52.014;8.540;2023-03-01T07:41:05;15.77;;;6.73;;
2187;SDS011;1100;52.014;8.540;2023-03-01T07:43:31;14.50;;;6.27;;
2187;SDS011;1100;52.014;8.540;2023-03-01T07:46:00;14.10;;;6.70;;
2187;SDS011;1100;52.014;8.540;2023-03-01T07:48:26;14.90;;;6.63;;
2187;SDS011;1100;52.014;8.540;2023-03-01T07:50:52;15.43;;;7.40;;
2187;SDS011;1100;52.014;8.540;2023-03-01T07:53:18;15.23;;;7.40;;
2187;SDS011;1100;52.014;8.540;2023-03-01T07:55:43;16.23;;;7.50;;
2187;SDS011;1100;52.014;8.540;2023-03-01T07:58:09;15.63;;;6.87;;
2187;SDS011;1100;52.014;8.540;2023-03-01T08:00:34;14.57;;;7.40;;
2187;SDS011;1100;52.014;8.540;2023-03-01T08:03:00;16.40;;;7.60;;
2187;SDS011;1100;52.014;8.540;2023-03-01T08:05:26;15.47;;;7.60;;
2187;SDS011;1100;52.014;8.540;2023-03-01T08:07:52;15.95;;;7.43;;
2187;SDS011;1100;52.014;8.540;2023-03-01T08:10:19;17.90;;;8.05;;
2187;SDS011;1100;52.014;8.540;2023-03-01T08:12:45;19.17;;;8.40;;
2187;SDS011;1100;52.014;8.540;2023-03-01T08:15:12;16.33;;;7.22;;
2187;SDS011;1100;52.014;8.540;2023-03-01T08:17:37;18.80;;;7.37;;
2187;SDS011;1100;52.014;8.540;2023-03-01T08:20:03;18.13;;;7.73;;
2187;SDS011;1100;52.014;8.540;2023-03-01T08:22:31;16.40;;;6.80;;
2187;SDS011;1100;52.014;8.540;2023-03-01T08:24:56;15.57;;;6.63;;
2187;SDS011;1100;52.014;8.540;2023-03-01T08:27:21;12.57;;;6.50;;
2187;SDS011;1100;52.014;8.540;2023-03-01T08:29:47;13.97;;;7.27;;
2187;SDS011;1100;52.014;8.540;2023-03-01T08:32:12;13.97;;;6.07;;
2187;SDS011;1100;52.014;8.540;2023-03-01T08:34:38;14.20;;;6.70;;
2187;SDS011;1100;52.014;8.540;2023-03-01T08:37:03;15.90;;;6.77;;
2187;SDS011;1100;52.014;8.540;2023-03-01T08:39:28;12.30;;;5.50;;
2187;SDS011;1100;52.014;8.540;2023-03-01T08:41:54;14.30;;;6.30;;
2187;SDS011;1100;52.014;8.540;2023-03-01T08:44:19;12.80;;;6.60;;
2187;SDS011;1100;52.014;8.540;2023-03-01T08:47:02;13.77;;;6.28;;
2187;SDS011;1100;52.014;8.540;2023-03-01T08:49:29;17.42;;;6.78;;
2187;SDS011;1100;52.014;8.540;2023-03-01T08:51:57;14.90;;;6.60;;
2187;SDS011;1100;52.014;8.540;2023-03-01T08:54:22;13.38;;;6.65;;
2187;SDS011;1100;52.014;8.540;2023-03-01T08:56:48;12.63;;;7.10;;
2187;SDS011;1100;52.014;8.540;2023-03-01T08:59:14;11.43;;;6.43;;
2187;SDS011;1100;52.014;8.540;2023-03-01T09:01:41;14.13;;;6.25;;
2187;SDS011;1100;52.014;8.540;2023-03-01T09:04:10;12.35;;;6.10;;
2187;SDS011;1100;52.014;8.540;2023-03-01T09:06:36;12.40;;;6.43;;
2187;SDS011;1100;52.014;8.540;2023-03-01T09:09:05;12.60;;;6.72;;
2187;SDS011;1100;52.014;8.540;2023-03-01T09:11:33;13.90;;;7.27;;
2187;SDS011;1100;52.014;8.540;2023-03-01T09:13:58;16.27;;;6.97;;
2187;SDS011;1100;52.014;8.540;2023-03-01T09:16:24;13.17;;;6.83;;
2187;SDS011;1100;52.014;8.540;2023-03-01T09:18:50;14.75;;;6.57;;
2187;SDS011;1100;52.014;8.540;2023-03-01T09:21:17;13.73;;;6.23;;
2187;SDS011;1100;52.014;8.540;2023-03-01T09:23:46;11.50;;;6.05;;
2187;SDS011;1100;52.014;8.540;2023-03-01T09:26:13;12.63;;;6.40;;
2187;SDS011;1100;52.014;8.540;2023-03-01T09:28:44;12.30;;;6.18;;
2187;SDS011;1100;52.014;8.540;2023-03-01T09:31:09;12.00;;;5.80;;
2187;SDS011;1100;52.014;8.540;2023-03-01T09:33:37;11.57;;;5.72;;
2187;SDS011;1100;52.014;8.540;2023-03-01T09:36:05;14.23;;;6.25;;
2187;SDS011;1100;52.014;8.540;2023-03-01T09:38:32;13.60;;;6.22;;
2187;SDS011;1100;52.014;8.540;2023-03-01T09:40:59;12.02;;;6.13;;
2187;SDS011;1100;52.014;8.540;2023-03-01T09:46:13;12.93;;;5.72;;
2187;SDS011;1100;52.014;8.540;2023-03-01T09:48:44;10.68;;;5.32;;
2187;SDS011;1100;52.014;8.540;2023-03-01T09:51:35;10.77;;;5.50;;
2187;SDS011;1100;52.014;8.540;2023-03-01T09:54:03;11.43;;;5.80;;
2187;SDS011;1100;52.014;8.540;2023-03-01T09:56:38;14.07;;;5.40;;
2187;SDS011;1100;52.014;8.540;2023-03-01T10:01:49;14.85;;;6.10;;
2187;SDS011;1100;52.014;8.540;2023-03-01T10:07:14;14.40;;;5.60;;
2187;SDS011;1100;52.014;8.540;2023-03-01T10:09:55;12.00;;;5.47;;
2187;SDS011;1100;52.014;8.540;2023-03-01T10:12:23;12.48;;;5.78;;
2187;SDS011;1100;52.014;8.540;2023-03-01T10:14:55;13.88;;;5.88;;
2187;SDS011;1100;52.014;8.540;2023-03-01T10:17:33;12.53;;;5.90;;
2187;SDS011;1100;52.014;8.540;2023-03-01T10:20:19;13.55;;;6.00;;
2187;SDS011;1100;52.014;8.540;2023-03-01T10:22:47;11.50;;;5.78;;
2187;SDS011;1100;52.014;8.540;2023-03-01T10:25:20;12.70;;;6.18;;
2187;SDS011;1100;52.014;8.540;2023-03-01T10:30:54;12.63;;;5.70;;
2187;SDS011;1100;52.014;8.540;2023-03-01T10:35:54;10.77;;;5.00;;
2187;SDS011;1100;52.014;8.540;2023-03-01T10:38:20;12.93;;;5.10;;
2187;SDS011;1100;52.014;8.540;2023-03-01T10:40:55;10.03;;;4.70;;
2187;SDS011;1100;52.014;8.540;2023-03-01T10:43:26;10.37;;;4.50;;
2187;SDS011;1100;52.014;8.540;2023-03-01T10:46:11;11.65;;;4.28;;
2187;SDS011;1100;52.014;8.540;2023-03-01T10:49:13;11.82;;;4.78;;
2187;SDS011;1100;52.014;8.540;2023-03-01T10:51:47;10.98;;;4.85;;
2187;SDS011;1100;52.014;8.540;2023-03-01T10:54:18;12.43;;;4.40;;
2187;SDS011;1100;52.014;8.540;2023-03-01T10:57:10;12.53;;;5.00;;
2187;SDS011;1100;52.014;8.540;2023-03-01T10:59:51;8.30;;;3.95;;
2187;SDS011;1100;52.014;8.540;2023-03-01T11:02:29;9.73;;;3.90;;
2187;SDS011;1100;52.014;8.540;2023-03-01T11:10:24;13.00;;;4.20;;
2187;SDS011;1100;52.014;8.540;2023-03-01T11:12:50;10.02;;;4.00;;
2187;SDS011;1100;52.014;8.540;2023-03-01T11:15:35;9.43;;;3.92;;
2187;SDS011;1100;52.014;8.540;2023-03-01T11:18:01;8.70;;;3.67;;
2187;SDS011;1100;52.014;8.540;2023-03-01T11:20:34;8.70;;;4.20;;
2187;SDS011;1100;52.014;8.540;2023-03-01T11:23:03;9.63;;;3.70;;
2187;SDS011;1100;52.014;8.540;2023-03-01T11:25:37;10.07;;;4.05;;
2187;SDS011;1100;52.014;8.540;2023-03-01T11:28:05;8.55;;;3.67;;
2187;SDS011;1100;52.014;8.540;2023-03-01T11:30:40;9.63;;;3.38;;
2187;SDS011;1100;52.014;8.540;2023-03-01T11:33:35;8.23;;;3.85;;
2187;SDS011;1100;52.014;8.540;2023-03-01T11:38:40;8.45;;;3.38;;
2187;SDS011;1100;52.014;8.540;2023-03-01T11:41:08;8.77;;;3.30;;
2187;SDS011;1100;52.014;8.540;2023-03-01T11:43:44;7.85;;;3.33;;
2187;SDS011;1100;52.014;8.540;2023-03-01T12:00:06;7.23;;;2.57;;
2187;SDS011;1100;52.014;8.540;2023-03-01T12:05:16;7.28;;;2.67;;
2187;SDS011;1100;52.014;8.540;2023-03-01T12:18:44;8.15;;;3.08;;
2187;SDS011;1100;52.014;8.540;2023-03-01T12:26:26;8.67;;;3.37;;
2187;SDS011;1100;52.014;8.540;2023-03-01T12:35:03;7.82;;;3.20;;
2187;SDS011;1100;52.014;8.540;2023-03-01T12:40:38;7.60;;;2.83;;
2187;SDS011;1100;52.014;8.540;2023-03-01T12:43:18;8.07;;;3.25;;
2187;SDS011;1100;52.014;8.540;2023-03-01T12:51:27;12.70;;;3.30;;
2187;SDS011;1100;52.014;8.540;2023-03-01T12:53:57;8.73;;;3.70;;
2187;SDS011;1100;52.014;8.540;2023-03-01T12:56:25;11.20;;;3.40;;
2187;SDS011;1100;52.014;8.540;2023-03-01T13:06:41;7.93;;;3.00;;
2187;SDS011;1100;52.014;8.540;2023-03-01T13:09:14;7.57;;;3.17;;
2187;SDS011;1100;52.014;8.540;2023-03-01T13:11:50;7.53;;;3.10;;
2187;SDS011;1100;52.014;8.540;2023-03-01T13:16:48;8.10;;;3.30;;
2187;SDS011;1100;52.014;8.540;2023-03-01T13:19:20;8.40;;;3.03;;
2187;SDS011;1100;52.014;8.540;2023-03-01T13:21:49;9.18;;;3.75;;
2187;SDS011;1100;52.014;8.540;2023-03-01T13:29:54;10.10;;;3.47;;
2187;SDS011;1100;52.014;8.540;2023-03-01T13:32:37;7.03;;;2.72;;
2187;SDS011;1100;52.014;8.540;2023-03-01T13:35:40;7.23;;;2.60;;
2187;SDS011;1100;52.014;8.540;2023-03-01T13:37:52;7.15;;;2.58;;
2187;SDS011;1100;52.014;8.540;2023-03-01T13:40:59;7.25;;;2.78;;
2187;SDS011;1100;52.014;8.540;2023-03-01T13:43:28;8.02;;;2.60;;
2187;SDS011;1100;52.014;8.540;2023-03-01T13:45:59;7.40;;;2.63;;
2187;SDS011;1100;52.014;8.540;2023-03-01T13:48:27;7.27;;;2.70;;
2187;SDS011;1100;52.014;8.540;2023-03-01T13:51:05;6.95;;;2.60;;
2187;SDS011;1100;52.014;8.540;2023-03-01T13:53:34;6.07;;;2.42;;
2187;SDS011;1100;52.014;8.540;2023-03-01T13:56:03;8.85;;;2.38;;
2187;SDS011;1100;52.014;8.540;2023-03-01T13:58:32;7.00;;;2.67;;
2187;SDS011;1100;52.014;8.540;2023-03-01T14:01:18;6.50;;;2.40;;
2187;SDS011;1100;52.014;8.540;2023-03-01T14:03:46;7.75;;;2.63;;
2187;SDS011;1100;52.014;8.540;2023-03-01T14:06:13;9.80;;;2.87;;
2187;SDS011;1100;52.014;8.540;2023-03-01T14:08:42;7.57;;;2.80;;
2187;SDS011;1100;52.014;8.540;2023-03-01T14:14:10;7.63;;;2.60;;
2187;SDS011;1100;52.014;8.540;2023-03-01T14:19:41;7.30;;;2.53;;
2187;SDS011;1100;52.014;8.540;2023-03-01T14:25:01;7.50;;;2.38;;
2187;SDS011;1100;52.014;8.540;2023-03-01T14:27:40;7.50;;;2.90;;
2187;SDS011;1100;52.014;8.540;2023-03-01T14:30:11;8.00;;;2.47;;
2187;SDS011;1100;52.014;8.540;2023-03-01T14:32:43;6.13;;;2.30;;
2187;SDS011;1100;52.014;8.540;2023-03-01T14:35:21;8.45;;;2.88;;
2187;SDS011;1100;52.014;8.540;2023-03-01T14:37:49;7.80;;;2.30;;
2187;SDS011;1100;52.014;8.540;2023-03-01T14:42:50;7.25;;;2.72;;
2187;SDS011;1100;52.014;8.540;2023-03-01T14:45:20;6.65;;;2.70;;
2187;SDS011;1100;52.014;8.540;2023-03-01T14:47:47;7.35;;;2.67;;
2187;SDS011;1100;52.014;8.540;2023-03-01T14:52:47;7.53;;;2.30;;
2187;SDS011;1100;52.014;8.540;2023-03-01T14:55:15;6.85;;;2.90;;
2187;SDS011;1100;52.014;8.540;2023-03-01T14:57:43;6.53;;;2.33;;
2187;SDS011;1100;52.014;8.540;2023-03-01T15:00:10;6.20;;;2.40;;
2187;SDS011;1100;52.014;8.540;2023-03-01T15:02:48;7.05;;;2.40;;
2187;SDS011;1100;52.014;8.540;2023-03-01T15:05:25;6.70;;;2.13;;
2187;SDS011;1100;52.014;8.540;2023-03-01T15:07:54;9.45;;;2.63;;
2187;SDS011;1100;52.014;8.540;2023-03-01T15:10:22;5.90;;;2.20;;
2187;SDS011;1100;52.014;8.540;2023-03-01T15:12:52;7.93;;;2.67;;
2187;SDS011;1100;52.014;8.540;2023-03-01T15:15:19;7.57;;;2.60;;
2187;SDS011;1100;52.014;8.540;2023-03-01T15:18:16;5.43;;;2.00;;
2187;SDS011;1100;52.014;8.540;2023-03-01T15:20:47;8.68;;;2.05;;
2187;SDS011;1100;52.014;8.540;2023-03-01T15:26:04;7.10;;;1.95;;
2187;SDS011;1100;52.014;8.540;2023-03-01T15:28:30;8.27;;;2.27;;
2187;SDS011;1100;52.014;8.540;2023-03-01T15:31:00;7.15;;;2.42;;
2187;SDS011;1100;52.014;8.540;2023-03-01T15:33:34;5.75;;;2.28;;
2187;SDS011;1100;52.014;8.540;2023-03-01T15:36:47;7.50;;;2.53;;
2187;SDS011;1100;52.014;8.540;2023-03-01T15:38:56;7.15;;;2.28;;
2187;SDS011;1100;52.014;8.540;2023-03-01T15:41:27;7.38;;;2.45;;
2187;SDS011;1100;52.014;8.540;2023-03-01T15:43:57;7.40;;;2.25;;
2187;SDS011;1100;52.014;8.540;2023-03-01T15:46:34;5.35;;;1.92;;
2187;SDS011;1100;52.014;8.540;2023-03-01T15:49:05;5.83;;;2.33;;
2187;SDS011;1100;52.014;8.540;2023-03-01T15:51:58;7.07;;;2.45;;
2187;SDS011;1100;52.014;8.540;2023-03-01T15:54:24;6.80;;;2.20;;
2187;SDS011;1100;52.014;8.540;2023-03-01T15:56:51;7.13;;;2.05;;
2187;SDS011;1100;52.014;8.540;2023-03-01T15:59:17;7.53;;;2.17;;
2187;SDS011;1100;52.014;8.540;2023-03-01T16:01:42;5.57;;;2.10;;
2187;SDS011;1100;52.014;8.540;2023-03-01T16:04:12;6.15;;;2.20;;
2187;SDS011;1100;52.014;8.540;2023-03-01T16:06:45;7.30;;;2.20;;
2187;SDS011;1100;52.014;8.540;2023-03-01T16:09:10;6.10;;;1.83;;
2187;SDS011;1100;52.014;8.540;2023-03-01T16:11:37;5.63;;;1.73;;
2187;SDS011;1100;52.014;8.540;2023-03-01T16:14:04;6.53;;;2.05;;
2187;SDS011;1100;52.014;8.540;2023-03-01T16:16:30;6.47;;;2.30;;
2187;SDS011;1100;52.014;8.540;2023-03-01T16:18:55;6.90;;;2.23;;
2187;SDS011;1100;52.014;8.540;2023-03-01T16:21:21;7.03;;;1.83;;
2187;SDS011;1100;52.014;8.540;2023-03-01T16:23:49;6.97;;;2.30;;
2187;SDS011;1100;52.014;8.540;2023-03-01T16:26:16;5.70;;;2.05;;
2187;SDS011;1100;52.014;8.540;2023-03-01T16:28:42;6.20;;;1.87;;
2187;SDS011;1100;52.014;8.540;2023-03-01T16:31:08;7.68;;;2.30;;
2187;SDS011;1100;52.014;8.540;2023-03-01T16:33:34;7.10;;;2.25;;
2187;SDS011;1100;52.014;8.540;2023-03-01T16:36:00;8.10;;;2.03;;
2187;SDS011;1100;52.014;8.540;2023-03-01T16:38:31;6.83;;;2.10;;
2187;SDS011;1100;52.014;8.540;2023-03-01T16:40:57;6.47;;;2.10;;
2187;SDS011;1100;52.014;8.540;2023-03-01T16:43:22;6.87;;;1.90;;
2187;SDS011;1100;52.014;8.540;2023-03-01T16:45:47;6.00;;;1.83;;
2187;SDS011;1100;52.014;8.540;2023-03-01T16:48:13;7.57;;;2.00;;
2187;SDS011;1100;52.014;8.540;2023-03-01T16:50:39;6.97;;;2.13;;
2187;SDS011;1100;52.014;8.540;2023-03-01T16:53:05;7.60;;;2.30;;
2187;SDS011;1100;52.014;8.540;2023-03-01T16:55:30;7.90;;;2.10;;
2187;SDS011;1100;52.014;8.540;2023-03-01T16:57:55;5.97;;;1.87;;
2187;SDS011;1100;52.014;8.540;2023-03-01T17:00:21;6.60;;;2.20;;
2187;SDS011;1100;52.014;8.540;2023-03-01T17:02:47;6.15;;;2.08;;
2187;SDS011;1100;52.014;8.540;2023-03-01T17:05:12;7.93;;;2.40;;
2187;SDS011;1100;52.014;8.540;2023-03-01T17:07:38;12.00;;;3.92;;